createdAt,value
2023-04-03T00:00:19.787Z,45.60
2023-04-03T00:01:19.763Z,45.76
2023-04-03T00:02:19.843Z,45.60
2023-04-03T00:03:19.795Z,45.92
2023-04-03T00:04:19.889Z,45.76
2023-04-03T00:05:19.732Z,45.28
2023-04-03T00:06:19.728Z,45.44
2023-04-03T00:07:19.710Z,44.96
2023-04-03T00:08:19.714Z,45.60
2023-04-03T00:09:19.698Z,45.76
2023-04-03T00:10:19.706Z,45.60
2023-04-03T00:11:19.722Z,45.92
2023-04-03T00:12:19.709Z,45.44
2023-04-03T00:13:19.679Z,45.76
2023-04-03T00:14:19.666Z,45.76
2023-04-03T00:15:19.704Z,45.44
2023-04-03T00:16:19.769Z,45.28
2023-04-03T00:17:19.678Z,45.92
2023-04-03T00:18:19.664Z,45.44
2023-04-03T00:19:19.657Z,45.44
2023-04-03T00:20:19.660Z,45.76
2023-04-03T00:21:19.635Z,45.12
2023-04-03T00:22:19.616Z,45.60
2023-04-03T00:23:19.624Z,45.92
2023-04-03T00:24:19.603Z,45.76
2023-04-03T00:25:19.694Z,45.28
2023-04-03T00:26:19.602Z,45.60
2023-04-03T00:27:19.611Z,45.92
2023-04-03T00:28:19.581Z,46.08
2023-04-03T00:29:19.617Z,45.76
2023-04-03T00:30:19.589Z,45.76
2023-04-03T00:31:19.629Z,45.92
2023-04-03T00:32:19.559Z,45.76
2023-04-03T00:33:19.663Z,46.41
2023-04-03T00:34:19.565Z,45.60
2023-04-03T00:35:19.548Z,45.76
2023-04-03T00:36:19.601Z,45.44
2023-04-03T00:37:19.564Z,45.60
2023-04-03T00:38:19.583Z,46.08
2023-04-03T00:39:19.547Z,45.92
2023-04-03T00:40:19.543Z,46.57
2023-04-03T00:41:19.505Z,45.92
2023-04-03T00:42:19.498Z,45.76
2023-04-03T00:43:19.496Z,45.76
2023-04-03T00:44:19.484Z,45.60
2023-04-03T00:45:19.482Z,45.76
2023-04-03T00:46:19.516Z,45.76
2023-04-03T00:47:19.466Z,45.92
2023-04-03T00:48:19.458Z,45.76
2023-04-03T00:49:19.456Z,45.76
2023-04-03T00:50:19.446Z,45.76
2023-04-03T00:51:19.443Z,45.44
2023-04-03T00:52:19.483Z,45.76
2023-04-03T00:53:19.422Z,45.12
2023-04-03T00:54:19.418Z,45.92
2023-04-03T00:55:19.423Z,45.76
2023-04-03T00:56:19.415Z,45.60
2023-04-03T00:57:19.485Z,45.76
2023-04-03T00:58:19.398Z,46.25
2023-04-03T00:59:20.393Z,46.08
2023-04-03T01:00:19.394Z,45.60
2023-04-03T01:01:19.408Z,46.41
2023-04-03T01:02:19.390Z,46.41
2023-04-03T01:03:19.364Z,46.08
2023-04-03T01:04:19.392Z,45.92
2023-04-03T01:05:19.348Z,46.08
2023-04-03T01:06:19.351Z,46.25
2023-04-03T01:07:19.336Z,46.41
2023-04-03T01:08:19.337Z,45.60
2023-04-03T01:09:19.377Z,45.92
2023-04-03T01:10:19.325Z,45.60
2023-04-03T01:11:19.329Z,46.41
2023-04-03T01:12:19.322Z,46.41
2023-04-03T01:13:19.301Z,47.37
2023-04-03T01:14:19.289Z,46.41
2023-04-03T01:15:19.307Z,46.08
2023-04-03T01:16:19.396Z,45.76
2023-04-03T01:17:19.271Z,45.92
2023-04-03T01:18:19.262Z,45.60
2023-04-03T01:19:19.255Z,45.76
2023-04-03T01:20:19.257Z,45.60
2023-04-03T01:21:19.282Z,45.12
2023-04-03T01:22:19.233Z,45.60
2023-04-03T01:23:19.235Z,46.25
2023-04-03T01:24:19.233Z,45.92
2023-04-03T01:25:19.224Z,46.25
2023-04-03T01:26:19.240Z,46.41
2023-04-03T01:27:19.216Z,45.76
2023-04-03T01:28:19.207Z,45.60
2023-04-03T01:29:19.211Z,45.92
2023-04-03T01:30:19.186Z,45.44
2023-04-03T01:31:19.243Z,45.60
2023-04-03T01:32:19.186Z,46.08
2023-04-03T01:33:19.164Z,46.08
2023-04-03T01:34:19.177Z,45.44
2023-04-03T01:35:19.177Z,46.41
2023-04-03T01:36:19.169Z,46.08
2023-04-03T01:37:19.143Z,45.28
2023-04-03T01:38:19.145Z,45.92
2023-04-03T01:39:19.138Z,45.76
2023-04-03T01:40:19.130Z,45.76
2023-04-03T01:41:19.113Z,46.57
2023-04-03T01:42:19.169Z,47.37
2023-04-03T01:43:19.099Z,46.08
2023-04-03T01:44:19.140Z,45.76
2023-04-03T01:45:19.092Z,46.41
2023-04-03T01:46:19.268Z,46.57
2023-04-03T01:47:19.075Z,46.89
2023-04-03T01:48:19.074Z,45.92
2023-04-03T01:49:19.102Z,45.76
2023-04-03T01:50:19.052Z,45.92
2023-04-03T01:51:19.058Z,45.92
2023-04-03T01:52:19.063Z,46.57
2023-04-03T01:53:19.039Z,46.25
2023-04-03T01:54:19.037Z,46.41
2023-04-03T01:55:19.057Z,45.92
2023-04-03T01:56:19.030Z,45.92
2023-04-03T01:57:19.060Z,46.41
2023-04-03T01:58:19.004Z,46.89
2023-04-03T01:59:19.004Z,46.73
2023-04-03T02:00:19.005Z,46.25
2023-04-03T02:01:19.035Z,46.25
2023-04-03T02:02:18.973Z,47.21
2023-04-03T02:03:18.981Z,46.41
2023-04-03T02:04:19.018Z,47.05
2023-04-03T02:05:18.965Z,46.25
2023-04-03T02:06:18.959Z,46.89
2023-04-03T02:07:18.961Z,45.92
2023-04-03T02:08:18.951Z,46.57
2023-04-03T02:09:18.945Z,47.21
2023-04-03T02:10:18.954Z,47.05
2023-04-03T02:11:18.913Z,46.89
2023-04-03T02:12:18.892Z,46.25
2023-04-03T02:13:18.911Z,45.92
2023-04-03T02:14:18.895Z,46.25
2023-04-03T02:15:18.881Z,46.57
2023-04-03T02:16:18.945Z,46.41
2023-04-03T02:17:18.949Z,46.57
2023-04-03T02:18:18.866Z,46.89
2023-04-03T02:19:18.862Z,46.25
2023-04-03T02:20:18.930Z,47.37
2023-04-03T02:21:18.857Z,47.37
2023-04-03T02:22:18.839Z,47.05
2023-04-03T02:23:18.856Z,46.89
2023-04-03T02:24:18.822Z,47.37
2023-04-03T02:25:18.822Z,47.05
2023-04-03T02:26:18.852Z,46.73
2023-04-03T02:27:18.812Z,46.57
2023-04-03T02:28:18.801Z,46.41
2023-04-03T02:29:18.816Z,47.37
2023-04-03T02:30:18.784Z,46.08
2023-04-03T02:31:18.801Z,46.41
2023-04-03T02:32:18.894Z,47.05
2023-04-03T02:33:18.817Z,46.57
2023-04-03T02:34:18.776Z,47.05
2023-04-03T02:35:18.789Z,46.57
2023-04-03T02:36:18.815Z,46.57
2023-04-03T02:37:18.745Z,46.89
2023-04-03T02:38:18.741Z,48.02
2023-04-03T02:39:18.753Z,46.57
2023-04-03T02:40:18.713Z,46.41
2023-04-03T02:41:18.719Z,46.73
2023-04-03T02:42:18.710Z,46.89
2023-04-03T02:43:18.698Z,47.21
2023-04-03T02:44:19.711Z,47.70
2023-04-03T02:45:18.687Z,47.86
2023-04-03T02:46:18.794Z,47.70
2023-04-03T02:47:18.681Z,47.53
2023-04-03T02:48:18.665Z,47.37
2023-04-03T02:49:18.675Z,46.73
2023-04-03T02:50:18.654Z,46.89
2023-04-03T02:51:18.642Z,48.34
2023-04-03T02:52:18.702Z,48.34
2023-04-03T02:53:18.635Z,47.21
2023-04-03T02:54:18.622Z,47.37
2023-04-03T02:55:18.631Z,48.18
2023-04-03T02:56:18.648Z,48.34
2023-04-03T02:57:18.660Z,47.70
2023-04-03T02:58:18.602Z,48.50
2023-04-03T02:59:18.601Z,47.86
2023-04-03T03:00:18.585Z,47.21
2023-04-03T03:01:18.633Z,50.27
2023-04-03T03:02:18.588Z,47.37
2023-04-03T03:03:18.570Z,47.53
2023-04-03T03:04:18.556Z,47.70
2023-04-03T03:05:18.658Z,47.37
2023-04-03T03:06:18.572Z,47.86
2023-04-03T03:07:18.543Z,47.86
2023-04-03T03:08:18.537Z,48.34
2023-04-03T03:09:18.527Z,47.53
2023-04-03T03:10:18.520Z,47.86
2023-04-03T03:11:18.528Z,48.82
2023-04-03T03:12:18.504Z,50.27
2023-04-03T03:13:18.492Z,49.31
2023-04-03T03:14:18.489Z,47.86
2023-04-03T03:15:18.492Z,47.70
2023-04-03T03:16:18.512Z,49.47
2023-04-03T03:17:18.470Z,49.47
2023-04-03T03:18:18.460Z,49.95
2023-04-03T03:19:18.466Z,50.60
2023-04-03T03:20:18.451Z,48.02
2023-04-03T03:21:18.515Z,48.34
2023-04-03T03:22:18.436Z,51.40
2023-04-03T03:23:18.433Z,49.15
2023-04-03T03:24:18.430Z,49.47
2023-04-03T03:25:18.448Z,48.50
2023-04-03T03:26:18.645Z,48.34
2023-04-03T03:27:18.397Z,48.66
2023-04-03T03:28:18.393Z,50.92
2023-04-03T03:29:18.393Z,49.79
2023-04-03T03:30:18.387Z,49.95
2023-04-03T03:31:18.823Z,49.15
2023-04-03T03:32:18.482Z,51.56
2023-04-03T03:33:18.368Z,50.11
2023-04-03T03:34:18.367Z,49.63
2023-04-03T03:35:18.341Z,51.24
2023-04-03T03:36:18.405Z,50.11
2023-04-03T03:37:18.352Z,50.76
2023-04-03T03:38:18.328Z,51.56
2023-04-03T03:39:18.351Z,49.47
2023-04-03T03:40:18.307Z,49.63
2023-04-03T03:41:18.333Z,48.66
2023-04-03T03:42:18.305Z,49.31
2023-04-03T03:43:18.341Z,51.88
2023-04-03T03:44:18.318Z,49.63
2023-04-03T03:45:18.277Z,52.21
2023-04-03T03:46:18.301Z,51.72
2023-04-03T03:47:18.276Z,50.92
2023-04-03T03:48:18.264Z,51.88
2023-04-03T03:49:18.270Z,52.21
2023-04-03T03:50:18.262Z,50.92
2023-04-03T03:51:18.258Z,49.63
2023-04-03T03:52:18.249Z,49.63
2023-04-03T03:53:18.249Z,52.53
2023-04-03T03:54:18.234Z,52.85
2023-04-03T03:55:18.285Z,52.37
2023-04-03T03:56:18.226Z,50.76
2023-04-03T03:57:18.258Z,51.56
2023-04-03T03:58:18.230Z,51.56
2023-04-03T03:59:18.199Z,50.27
2023-04-03T04:00:18.199Z,51.88
2023-04-03T04:01:18.193Z,51.08
2023-04-03T04:02:18.192Z,50.60
2023-04-03T04:03:18.239Z,51.56
2023-04-03T04:04:18.305Z,50.76
2023-04-03T04:05:18.172Z,50.92
2023-04-03T04:06:18.157Z,52.37
2023-04-03T04:07:18.158Z,51.72
2023-04-03T04:08:18.144Z,52.85
2023-04-03T04:09:18.250Z,51.40
2023-04-03T04:10:18.144Z,52.69
2023-04-03T04:11:18.116Z,50.27
2023-04-03T04:12:18.120Z,50.27
2023-04-03T04:13:18.123Z,50.11
2023-04-03T04:14:18.108Z,52.21
2023-04-03T04:15:18.135Z,51.72
2023-04-03T04:16:18.120Z,51.24
2023-04-03T04:17:18.103Z,51.40
2023-04-03T04:18:18.081Z,50.76
2023-04-03T04:19:18.088Z,51.56
2023-04-03T04:20:18.060Z,50.43
2023-04-03T04:21:18.061Z,50.43
2023-04-03T04:22:19.061Z,51.56
2023-04-03T04:23:18.080Z,52.21
2023-04-03T04:24:18.024Z,51.72
2023-04-03T04:25:18.032Z,52.21
2023-04-03T04:26:18.029Z,52.37
2023-04-03T04:27:18.026Z,50.43
2023-04-03T04:28:18.014Z,51.88
2023-04-03T04:29:18.008Z,51.56
2023-04-03T04:30:18.028Z,50.43
2023-04-03T04:31:18.052Z,53.50
2023-04-03T04:32:17.993Z,52.69
2023-04-03T04:33:17.979Z,50.60
2023-04-03T04:34:18.011Z,51.24
2023-04-03T04:35:18.026Z,53.33
2023-04-03T04:36:18.034Z,52.53
2023-04-03T04:37:17.966Z,53.33
2023-04-03T04:38:17.948Z,53.33
2023-04-03T04:39:17.959Z,53.50
2023-04-03T04:40:17.946Z,53.01
2023-04-03T04:41:17.927Z,53.66
2023-04-03T04:42:18.678Z,53.82
2023-04-03T04:43:17.946Z,53.98
2023-04-03T04:44:17.908Z,54.46
2023-04-03T04:45:18.932Z,53.50
2023-04-03T04:46:17.951Z,52.53
2023-04-03T04:47:17.899Z,53.17
2023-04-03T04:48:17.885Z,53.33
2023-04-03T04:49:17.932Z,53.17
2023-04-03T04:50:17.878Z,52.85
2023-04-03T04:51:17.867Z,52.53
2023-04-03T04:52:17.898Z,52.05
2023-04-03T04:53:17.862Z,53.01
2023-04-03T04:54:17.868Z,52.37
2023-04-03T04:55:17.859Z,52.85
2023-04-03T04:56:17.877Z,52.21
2023-04-03T04:57:17.877Z,52.53
2023-04-03T04:58:17.857Z,54.30
2023-04-03T04:59:18.481Z,54.46
2023-04-03T05:00:17.837Z,54.79
2023-04-03T05:01:17.825Z,55.43
2023-04-03T05:02:17.809Z,56.72
2023-04-03T05:03:17.796Z,54.30
2023-04-03T05:04:17.809Z,53.33
2023-04-03T05:05:17.836Z,54.62
2023-04-03T05:06:17.776Z,52.37
2023-04-03T05:07:17.767Z,53.50
2023-04-03T05:08:17.787Z,52.21
2023-04-03T05:09:17.751Z,53.82
2023-04-03T05:10:17.755Z,54.79
2023-04-03T05:11:17.741Z,54.79
2023-04-03T05:12:17.780Z,55.43
2023-04-03T05:13:17.728Z,54.30
2023-04-03T05:14:17.722Z,54.14
2023-04-03T05:15:17.714Z,52.53
2023-04-03T05:16:17.759Z,53.17
2023-04-03T05:17:17.720Z,52.37
2023-04-03T05:18:17.701Z,52.21
2023-04-03T05:19:17.712Z,52.69
2023-04-03T05:20:17.686Z,54.46
2023-04-03T05:21:17.684Z,55.43
2023-04-03T05:22:17.683Z,55.43
2023-04-03T05:23:17.669Z,55.75
2023-04-03T05:24:17.657Z,52.69
2023-04-03T05:25:17.646Z,53.98
2023-04-03T05:26:17.647Z,52.05
2023-04-03T05:27:17.630Z,52.21
2023-04-03T05:28:17.654Z,53.33
2023-04-03T05:29:17.618Z,54.95
2023-04-03T05:30:17.612Z,53.82
2023-04-03T05:31:17.635Z,53.82
2023-04-03T05:32:17.607Z,53.50
2023-04-03T05:33:17.607Z,53.50
2023-04-03T05:34:17.622Z,53.82
2023-04-03T05:35:17.598Z,51.40
2023-04-03T05:36:17.666Z,52.21
2023-04-03T05:37:17.576Z,52.53
2023-04-03T05:38:17.567Z,52.05
2023-04-03T05:39:18.574Z,51.08
2023-04-03T05:40:18.730Z,53.66
2023-04-03T05:41:18.553Z,53.66
2023-04-03T05:42:17.548Z,54.79
2023-04-03T05:43:17.530Z,52.53
2023-04-03T05:44:17.532Z,53.66
2023-04-03T05:45:17.568Z,52.85
2023-04-03T05:46:17.548Z,52.85
2023-04-03T05:47:17.502Z,53.01
2023-04-03T05:48:17.510Z,52.21
2023-04-03T05:49:17.515Z,52.53
2023-04-03T05:50:17.477Z,52.37
2023-04-03T05:51:17.484Z,53.01
2023-04-03T05:52:17.481Z,53.01
2023-04-03T05:53:17.460Z,51.88
2023-04-03T05:54:17.469Z,51.24
2023-04-03T05:55:17.447Z,51.56
2023-04-03T05:56:17.449Z,52.21
2023-04-03T05:57:17.465Z,53.82
2023-04-03T05:58:17.432Z,51.72
2023-04-03T05:59:17.433Z,51.72
2023-04-03T06:00:17.423Z,52.37
2023-04-03T06:01:17.421Z,52.21
2023-04-03T06:02:17.496Z,51.88
2023-04-03T06:03:17.487Z,50.43
2023-04-03T06:04:17.560Z,52.05
2023-04-03T06:05:17.383Z,52.05
2023-04-03T06:06:17.490Z,50.92
2023-04-03T06:07:17.383Z,50.76
2023-04-03T06:08:17.374Z,51.24
2023-04-03T06:09:18.357Z,51.88
2023-04-03T06:10:17.391Z,51.24
2023-04-03T06:11:17.371Z,50.43
2023-04-03T06:12:17.341Z,52.21
2023-04-03T06:13:17.334Z,52.69
2023-04-03T06:14:17.371Z,51.08
2023-04-03T06:15:17.340Z,52.69
2023-04-03T06:16:17.319Z,52.37
2023-04-03T06:17:17.509Z,53.82
2023-04-03T06:18:17.300Z,49.95
2023-04-03T06:19:17.303Z,51.24
2023-04-03T06:20:17.290Z,54.30
2023-04-03T06:21:17.516Z,52.37
2023-04-03T06:22:17.339Z,51.08
2023-04-03T06:23:17.268Z,49.95
2023-04-03T06:24:17.269Z,52.69
2023-04-03T06:25:17.255Z,52.21
2023-04-03T06:26:17.274Z,49.95
2023-04-03T06:27:17.251Z,50.11
2023-04-03T06:28:17.232Z,50.27
2023-04-03T06:29:17.259Z,50.11
2023-04-03T06:30:17.233Z,51.24
2023-04-03T06:31:17.253Z,48.98
2023-04-03T06:32:17.216Z,51.08
2023-04-03T06:33:17.200Z,52.37
2023-04-03T06:34:17.194Z,51.24
2023-04-03T06:35:17.217Z,53.01
2023-04-03T06:36:17.174Z,51.40
2023-04-03T06:37:17.176Z,50.60
2023-04-03T06:38:18.166Z,52.05
2023-04-03T06:39:17.167Z,51.24
2023-04-03T06:40:17.153Z,49.15
2023-04-03T06:41:17.170Z,50.60
2023-04-03T06:42:17.144Z,52.69
2023-04-03T06:43:17.172Z,49.95
2023-04-03T06:44:17.118Z,49.79
2023-04-03T06:45:17.146Z,48.18
2023-04-03T06:46:17.252Z,49.79
2023-04-03T06:47:17.115Z,49.63
2023-04-03T06:48:17.115Z,51.72
2023-04-03T06:49:17.116Z,50.43
2023-04-03T06:50:17.086Z,48.50
2023-04-03T06:51:17.081Z,49.47
2023-04-03T06:52:17.075Z,49.47
2023-04-03T06:53:17.090Z,47.53
2023-04-03T06:54:17.062Z,48.02
2023-04-03T06:55:17.055Z,49.79
2023-04-03T06:56:17.041Z,48.18
2023-04-03T06:57:17.095Z,47.86
2023-04-03T06:58:17.025Z,48.50
2023-04-03T06:59:17.031Z,49.79
2023-04-03T07:00:17.010Z,48.82
2023-04-03T07:01:17.155Z,48.66
2023-04-03T07:02:17.049Z,48.18
2023-04-03T07:03:17.008Z,48.66
2023-04-03T07:04:17.054Z,47.37
2023-04-03T07:05:16.992Z,47.53
2023-04-03T07:06:16.994Z,48.02
2023-04-03T07:07:16.969Z,48.98
2023-04-03T07:08:17.045Z,48.66
2023-04-03T07:09:16.959Z,48.66
2023-04-03T07:10:16.956Z,48.82
2023-04-03T07:11:16.951Z,48.66
2023-04-03T07:12:16.942Z,48.50
2023-04-03T07:13:16.948Z,48.98
2023-04-03T07:14:16.949Z,48.98
2023-04-03T07:15:16.968Z,48.18
2023-04-03T07:16:17.974Z,46.41
2023-04-03T07:17:16.902Z,47.86
2023-04-03T07:18:16.914Z,47.21
2023-04-03T07:19:16.910Z,48.98
2023-04-03T07:20:16.881Z,46.73
2023-04-03T07:21:16.882Z,47.37
2023-04-03T07:22:16.889Z,46.89
2023-04-03T07:23:16.890Z,46.41
2023-04-03T07:24:16.999Z,46.89
2023-04-03T07:25:16.855Z,46.41
2023-04-03T07:26:16.842Z,46.89
2023-04-03T07:27:16.845Z,45.92
2023-04-03T07:28:16.830Z,48.34
2023-04-03T07:29:16.840Z,48.18
2023-04-03T07:30:16.824Z,47.37
2023-04-03T07:31:16.875Z,48.02
2023-04-03T07:32:16.817Z,46.57
2023-04-03T07:33:16.806Z,46.41
2023-04-03T07:34:16.812Z,46.08
2023-04-03T07:35:16.803Z,47.86
2023-04-03T07:36:16.834Z,46.25
2023-04-03T07:37:16.776Z,44.96
2023-04-03T07:38:16.777Z,45.44
2023-04-03T07:39:16.763Z,45.76
2023-04-03T07:40:17.062Z,45.60
2023-04-03T07:41:16.761Z,47.53
2023-04-03T07:42:16.835Z,46.57
2023-04-03T07:43:16.755Z,48.02
2023-04-03T07:44:16.737Z,48.98
2023-04-03T07:45:16.740Z,47.70
2023-04-03T07:46:16.740Z,47.70
2023-04-03T07:47:16.699Z,47.37
2023-04-03T07:48:16.699Z,46.41
2023-04-03T07:49:16.699Z,45.92
2023-04-03T07:50:16.696Z,46.08
2023-04-03T07:51:16.687Z,46.08
2023-04-03T07:52:16.676Z,45.28
2023-04-03T07:53:16.666Z,47.70
2023-04-03T07:54:16.661Z,48.18
2023-04-03T07:55:16.688Z,47.05
2023-04-03T07:56:16.646Z,42.54
2023-04-03T07:57:16.677Z,45.44
2023-04-03T07:58:16.762Z,44.63
2023-04-03T07:59:16.620Z,45.28
2023-04-03T08:00:17.636Z,46.89
2023-04-03T08:01:16.631Z,46.41
2023-04-03T08:02:16.598Z,44.47
2023-04-03T08:03:16.730Z,46.25
2023-04-03T08:04:16.755Z,44.31
2023-04-03T08:05:16.986Z,46.41
2023-04-03T08:06:18.564Z,47.05
2023-04-03T08:07:16.578Z,43.83
2023-04-03T08:08:16.920Z,42.70
2023-04-03T08:09:16.631Z,46.08
2023-04-03T08:10:16.567Z,48.18
2023-04-03T08:11:16.572Z,42.70
2023-04-03T08:12:16.546Z,45.76
2023-04-03T08:13:16.534Z,47.05
2023-04-03T08:14:16.554Z,45.28
2023-04-03T08:15:16.548Z,47.05
2023-04-03T08:16:16.514Z,46.41
2023-04-03T08:17:16.493Z,46.89
2023-04-03T08:18:16.511Z,45.60
2023-04-03T08:19:25.378Z,45.12
2023-04-03T08:20:18.475Z,45.76
2023-04-03T08:21:16.472Z,43.34
2023-04-03T08:22:16.477Z,44.31
2023-04-03T08:23:17.614Z,44.96
2023-04-03T08:24:16.458Z,47.37
2023-04-03T08:25:16.456Z,46.57
2023-04-03T08:26:16.431Z,47.37
2023-04-03T08:27:16.431Z,46.57
2023-04-03T08:28:16.426Z,44.31
2023-04-03T08:29:16.437Z,44.79
2023-04-03T08:30:16.428Z,43.34
2023-04-03T08:31:16.533Z,44.31
2023-04-03T08:32:16.425Z,48.50
2023-04-03T08:33:16.404Z,43.99
2023-04-03T08:34:16.393Z,44.47
2023-04-03T08:35:16.391Z,46.57
2023-04-03T08:36:16.432Z,44.79
2023-04-03T08:37:16.376Z,43.99
2023-04-03T08:38:17.358Z,44.63
2023-04-03T08:39:16.356Z,44.63
2023-04-03T08:40:16.341Z,43.99
2023-04-03T08:41:16.352Z,44.79
2023-04-03T08:42:16.338Z,43.83
2023-04-03T08:43:16.317Z,45.60
2023-04-03T08:44:16.321Z,42.86
2023-04-03T08:45:16.320Z,44.47
2023-04-03T08:46:16.462Z,44.15
2023-04-03T08:47:16.328Z,45.12
2023-04-03T08:48:16.339Z,44.47
2023-04-03T08:49:16.383Z,41.89
2023-04-03T08:50:16.293Z,42.22
2023-04-03T08:51:16.308Z,44.63
2023-04-03T08:52:16.290Z,42.22
2023-04-03T08:53:16.270Z,45.28
2023-04-03T08:54:16.246Z,44.63
2023-04-03T08:55:16.260Z,45.76
2023-04-03T08:56:16.239Z,46.89
2023-04-03T08:57:16.244Z,45.12
2023-04-03T08:58:16.285Z,44.79
2023-04-03T08:59:16.221Z,44.79
2023-04-03T09:00:16.216Z,46.08
2023-04-03T09:01:16.236Z,46.57
2023-04-03T09:02:16.303Z,46.57
2023-04-03T09:03:16.307Z,47.86
2023-04-03T09:04:16.270Z,46.41
2023-04-03T09:05:16.182Z,45.60
2023-04-03T09:06:16.217Z,46.41
2023-04-03T09:07:16.180Z,47.70
2023-04-03T09:08:16.172Z,46.08
2023-04-03T09:09:16.169Z,45.76
2023-04-03T09:10:16.159Z,46.41
2023-04-03T09:11:16.138Z,46.73
2023-04-03T09:12:16.137Z,46.73
2023-04-03T09:13:16.133Z,47.37
2023-04-03T09:14:16.131Z,44.31
2023-04-03T09:15:17.986Z,45.76
2023-04-03T09:16:16.152Z,46.25
2023-04-03T09:17:16.101Z,46.41
2023-04-03T09:18:16.210Z,46.25
2023-04-03T09:19:16.129Z,44.63
2023-04-03T09:20:16.748Z,43.83
2023-04-03T09:21:16.103Z,45.28
2023-04-03T09:22:16.059Z,47.53
2023-04-03T09:23:16.050Z,46.57
2023-04-03T09:24:16.047Z,45.76
2023-04-03T09:25:16.049Z,46.41
2023-04-03T09:26:16.055Z,45.76
2023-04-03T09:27:16.054Z,44.63
2023-04-03T09:28:16.026Z,47.05
2023-04-03T09:29:16.032Z,44.47
2023-04-03T09:30:16.014Z,45.92
2023-04-03T09:31:16.044Z,46.73
2023-04-03T09:32:16.006Z,45.28
2023-04-03T09:33:16.040Z,44.96
2023-04-03T09:34:16.100Z,44.79
2023-04-03T09:35:20.521Z,44.79
2023-04-03T09:36:18.048Z,46.57
2023-04-03T09:37:15.965Z,45.76
2023-04-03T09:38:15.973Z,46.08
2023-04-03T09:39:15.953Z,46.89
2023-04-03T09:40:15.951Z,47.53
2023-04-03T09:41:15.951Z,47.37
2023-04-03T09:42:15.946Z,44.47
2023-04-03T09:43:15.923Z,48.66
2023-04-03T09:44:15.942Z,47.86
2023-04-03T09:45:15.926Z,47.21
2023-04-03T09:46:15.926Z,46.73
2023-04-03T09:47:15.927Z,47.21
2023-04-03T09:48:16.704Z,47.53
2023-04-03T09:49:15.887Z,47.53
2023-04-03T09:50:15.992Z,49.15
2023-04-03T09:51:15.888Z,48.66
2023-04-03T09:52:15.883Z,46.73
2023-04-03T09:53:15.875Z,46.08
2023-04-03T09:54:15.862Z,48.66
2023-04-03T09:55:15.851Z,46.89
2023-04-03T09:56:15.854Z,47.05
2023-04-03T09:57:15.860Z,46.57
2023-04-03T09:58:15.836Z,45.28
2023-04-03T09:59:15.838Z,46.25
2023-04-03T10:00:15.813Z,46.89
2023-04-03T10:01:15.894Z,46.89
2023-04-03T10:02:15.810Z,48.66
2023-04-03T10:03:15.806Z,46.89
2023-04-03T10:04:15.837Z,47.37
2023-04-03T10:05:15.848Z,47.53
2023-04-03T10:06:15.871Z,47.05
2023-04-03T10:07:15.790Z,47.53
2023-04-03T10:08:15.786Z,45.92
2023-04-03T10:09:15.758Z,49.15
2023-04-03T10:10:15.867Z,45.28
2023-04-03T10:11:15.746Z,46.57
2023-04-03T10:12:15.759Z,44.63
2023-04-03T10:13:20.984Z,43.83
2023-04-03T10:14:17.734Z,45.76
2023-04-03T10:15:15.726Z,45.44
2023-04-03T10:16:15.762Z,45.76
2023-04-03T10:17:15.730Z,45.60
2023-04-03T10:18:24.261Z,44.63
2023-04-03T10:19:17.699Z,45.76
2023-04-03T10:20:15.696Z,46.41
2023-04-03T10:21:26.706Z,44.47
2023-04-03T10:22:17.781Z,45.92
2023-04-03T10:23:15.667Z,44.15
2023-04-03T10:24:15.689Z,45.28
2023-04-03T10:25:15.655Z,45.76
2023-04-03T10:26:15.646Z,45.60
2023-04-03T10:27:15.654Z,45.60
2023-04-03T10:28:15.656Z,46.41
2023-04-03T10:29:15.682Z,44.79
2023-04-03T10:30:15.627Z,43.99
2023-04-03T10:31:15.659Z,43.51
2023-04-03T10:32:15.618Z,43.83
2023-04-03T10:33:15.606Z,42.70
2023-04-03T10:34:15.861Z,43.99
2023-04-03T10:35:15.590Z,44.31
2023-04-03T10:36:15.583Z,45.60
2023-04-03T10:37:15.579Z,44.79
2023-04-03T10:38:16.256Z,44.31
2023-04-03T10:39:15.565Z,47.86
2023-04-03T10:40:15.743Z,47.21
2023-04-03T10:41:17.445Z,46.08
2023-04-03T10:42:17.541Z,45.28
2023-04-03T10:43:16.532Z,45.28
2023-04-03T10:44:16.536Z,49.31
2023-04-03T10:45:15.527Z,48.82
2023-04-03T10:46:15.530Z,46.73
2023-04-03T10:47:15.512Z,48.34
2023-04-03T10:48:15.532Z,48.66
2023-04-03T10:49:15.497Z,48.34
2023-04-03T10:50:15.509Z,48.98
2023-04-03T10:51:15.504Z,48.66
2023-04-03T10:52:15.534Z,48.34
2023-04-03T10:53:15.473Z,47.70
2023-04-03T10:54:15.564Z,47.05
2023-04-03T10:55:15.464Z,45.60
2023-04-03T10:56:15.449Z,45.44
2023-04-03T10:57:15.488Z,46.41
2023-04-03T10:58:15.673Z,45.92
2023-04-03T10:59:15.444Z,47.86
2023-04-03T11:00:15.432Z,48.50
2023-04-03T11:01:15.444Z,49.47
2023-04-03T11:02:15.445Z,48.02
2023-04-03T11:03:15.452Z,49.31
2023-04-03T11:04:15.413Z,48.50
2023-04-03T11:05:15.402Z,46.73
2023-04-03T11:06:15.390Z,48.02
2023-04-03T11:07:15.379Z,48.02
2023-04-03T11:08:15.413Z,48.66
2023-04-03T11:09:15.386Z,48.98
2023-04-03T11:10:15.938Z,49.15
2023-04-03T11:11:16.367Z,49.15
2023-04-03T11:12:15.358Z,48.18
2023-04-03T11:13:15.350Z,48.34
2023-04-03T11:14:15.364Z,47.70
2023-04-03T11:15:15.327Z,48.82
2023-04-03T11:16:15.411Z,49.47
2023-04-03T11:17:15.330Z,48.66
2023-04-03T11:18:15.362Z,48.34
2023-04-03T11:19:15.317Z,49.31
2023-04-03T11:20:15.310Z,48.98
2023-04-03T11:21:15.294Z,47.53
2023-04-03T11:22:15.302Z,48.18
2023-04-03T11:23:15.319Z,48.82
2023-04-03T11:24:15.301Z,47.70
2023-04-03T11:25:15.277Z,47.21
2023-04-03T11:26:15.367Z,48.82
2023-04-03T11:27:15.258Z,50.76
2023-04-03T11:28:15.254Z,49.79
2023-04-03T11:29:20.758Z,49.47
2023-04-03T11:30:17.240Z,48.66
2023-04-03T11:31:15.230Z,49.79
2023-04-03T11:32:15.236Z,46.89
2023-04-03T11:33:15.220Z,46.25
2023-04-03T11:34:15.205Z,47.21
2023-04-03T11:35:15.234Z,49.63
2023-04-03T11:36:25.715Z,48.66
2023-04-03T11:37:17.198Z,48.34
2023-04-03T11:38:15.188Z,47.37
2023-04-03T11:39:15.171Z,49.15
2023-04-03T11:40:15.178Z,48.98
2023-04-03T11:41:15.158Z,47.53
2023-04-03T11:42:15.288Z,47.21
2023-04-03T11:43:15.200Z,49.47
2023-04-03T11:44:15.148Z,48.82
2023-04-03T11:45:15.144Z,48.18
2023-04-03T11:46:15.154Z,48.50
2023-04-03T11:47:15.118Z,46.89
2023-04-03T11:48:24.562Z,47.05
2023-04-03T11:49:17.118Z,46.89
2023-04-03T11:50:15.108Z,49.15
2023-04-03T11:51:15.098Z,49.95
2023-04-03T11:52:15.104Z,48.34
2023-04-03T11:53:15.148Z,47.05
2023-04-03T11:54:15.092Z,45.44
2023-04-03T11:55:15.076Z,46.41
2023-04-03T11:56:15.067Z,44.96
2023-04-03T11:57:15.175Z,47.37
2023-04-03T11:58:15.143Z,46.73
2023-04-03T11:59:15.081Z,46.08
2023-04-03T12:00:15.031Z,44.96
2023-04-03T12:01:15.034Z,45.92
2023-04-03T12:02:15.050Z,47.86
2023-04-03T12:03:15.094Z,46.41
2023-04-03T12:04:15.073Z,45.44
2023-04-03T12:05:15.017Z,47.37
2023-04-03T12:06:15.003Z,44.15
2023-04-03T12:07:14.997Z,46.08
2023-04-03T12:08:14.969Z,45.92
2023-04-03T12:09:14.970Z,45.12
2023-04-03T12:10:21.427Z,44.79
2023-04-03T12:11:16.963Z,45.44
2023-04-03T12:12:14.945Z,45.92
2023-04-03T12:13:14.937Z,45.76
2023-04-03T12:14:15.050Z,45.60
2023-04-03T12:15:14.930Z,45.60
2023-04-03T12:16:14.927Z,48.34
2023-04-03T12:17:15.920Z,47.70
2023-04-03T12:18:14.932Z,46.08
2023-04-03T12:19:14.900Z,46.73
2023-04-03T12:20:14.885Z,46.89
2023-04-03T12:21:14.889Z,46.57
2023-04-03T12:22:14.877Z,46.41
2023-04-03T12:23:14.952Z,45.28
2023-04-03T12:24:14.871Z,45.60
2023-04-03T12:25:14.873Z,46.25
2023-04-03T12:26:14.855Z,46.89
2023-04-03T12:27:14.871Z,44.96
2023-04-03T12:28:14.840Z,44.63
2023-04-03T12:29:14.874Z,47.37
2023-04-03T12:30:14.926Z,47.37
2023-04-03T12:31:15.849Z,44.79
2023-04-03T12:32:14.820Z,45.28
2023-04-03T12:33:14.822Z,47.37
2023-04-03T12:34:14.825Z,47.53
2023-04-03T12:35:14.804Z,46.41
2023-04-03T12:36:14.836Z,45.44
2023-04-03T12:37:14.792Z,46.08
2023-04-03T12:38:14.800Z,48.34
2023-04-03T12:39:14.772Z,48.18
2023-04-03T12:40:14.812Z,49.31
2023-04-03T12:41:14.769Z,49.63
2023-04-03T12:42:14.762Z,49.95
2023-04-03T12:43:14.765Z,50.76
2023-04-03T12:44:14.773Z,49.95
2023-04-03T12:45:14.760Z,50.60
2023-04-03T12:46:14.932Z,47.05
2023-04-03T12:47:14.880Z,46.73
2023-04-03T12:48:15.127Z,51.72
2023-04-03T12:49:14.724Z,56.88
2023-04-03T12:50:14.722Z,57.52
2023-04-03T12:51:14.716Z,56.88
2023-04-03T12:52:14.698Z,56.56